Lowest pressure

Not for real navigation. The accuracy of this data is not assured See disclaimer for more information



ICAO NAME COUNTRY WIND Kt GUST Kt VIS m TEMP/DEW C BARO METAR
NZSP Amundsen-Scott South Pole Stat Antarctica 10 0 6000 -60/0 28.54 NZSP 191150Z 04010KT 6000 BR BKN150 M60/ A2854 RMK CLN AIR 04015KT ALL WNDS GRID
NZCM Williams Field Antarctica 12 21 9999 -14/-21 28.74 NZCM 191155Z 19012G21KT 9999 CAVOK M14/M21 A2874 RMK AO2A PK WND 16028/0744 SNE0950 SLP739 T11361210
CYGL La Grande Riviere, Que Canada 10 15 6400 17/17 29.33 CYGL 191307Z 11010G15KT 4SM -SHRA BR BKN005 OVC012 17/17 A2933 RMK SF6SC2 CVCTV CLD EMBD SLP934 DENS
CYNC Aeroport de Wemindji, Que. Canada 8 16 800 14/14 29.37 CYNC 191333Z 29008G16KT 0.5SM FG VV001 14/14 A2937 RMK FG8 SLP948 DENSITY ALT 700FT
CYGW Kuujjuarapik, Que. Canada 9 17 9999 20/15 29.37 CYGW 191300Z AUTO 12009G17KT 9SM CAVOK 20/15 A2937 RMK SLP946 DENSITY ALT 1200FT

Show more